Time;durP1;ratioP1;P1;durP2;ratioP2;P2;SDS_P1;SDS_P2;PMS_P1;PMS_P2;Temp;Humidity;BMP_temperature;BMP_pressure;BME280_temperature;BME280_humidity;BME280_pressure;Samples;Min_cycle;Max_cycle;Signal;HPM_P1;HPM_P2
2022/06/24 00:00:14;;;;;;;1999.90;999.90;;;23.20;99.90;;;;;;4975991;28;20825;-75
2022/06/24 00:02:41;;;;;;;1999.90;999.90;;;23.20;99.90;;;;;;4975681;28;20759;-75
2022/06/24 00:05:10;;;;;;;1999.90;999.90;;;23.30;99.90;;;;;;4975716;28;20820;-75
2022/06/24 00:07:46;;;;;;;1999.90;999.90;;;23.30;99.90;;;;;;4975219;28;20413;-74
2022/06/24 00:10:13;;;;;;;1999.90;999.90;;;23.30;99.90;;;;;;4975780;28;20767;-75
2022/06/24 00:12:39;;;;;;;1999.90;999.90;;;23.30;99.90;;;;;;4975439;28;20600;-75
2022/06/24 00:15:05;;;;;;;1999.90;999.90;;;23.30;99.90;;;;;;4975605;28;20496;-74
2022/06/24 00:17:32;;;;;;;1999.90;999.90;;;23.30;99.90;;;;;;4975162;28;20182;-76
2022/06/24 00:20:06;;;;;;;1999.90;999.90;;;23.20;99.90;;;;;;4975382;28;20785;-74
2022/06/24 00:22:44;;;;;;;1999.90;999.90;;;23.00;99.90;;;;;;4975442;28;20405;-75
2022/06/24 00:25:16;;;;;;;1999.90;999.90;;;22.80;99.90;;;;;;4975469;28;20471;-75
2022/06/24 00:27:43;;;;;;;1999.90;999.90;;;22.50;99.90;;;;;;4974946;28;20435;-75
2022/06/24 00:30:16;;;;;;;1999.90;999.90;;;22.40;99.90;;;;;;4975310;28;20381;-74
2022/06/24 00:32:43;;;;;;;1999.90;999.90;;;22.10;99.90;;;;;;4975021;28;20444;-74
2022/06/24 00:35:17;;;;;;;1999.90;999.90;;;21.90;99.90;;;;;;4975200;28;20375;-74
2022/06/24 00:37:45;;;;;;;1999.90;999.90;;;21.70;99.90;;;;;;4974758;28;20396;-74
2022/06/24 00:40:10;;;;;;;1999.90;999.90;;;21.50;99.90;;;;;;4975058;28;20876;-74
2022/06/24 00:42:42;;;;;;;1999.90;999.90;;;21.40;99.90;;;;;;4974973;28;20403;-74
2022/06/24 00:45:24;;;;;;;1999.90;999.90;;;21.30;99.90;;;;;;4974982;28;20560;-74
2022/06/24 00:47:51;;;;;;;1999.90;999.90;;;21.30;99.90;;;;;;4974549;28;20403;-74
2022/06/24 00:50:32;;;;;;;1999.90;999.90;;;21.20;99.90;;;;;;4974923;28;20401;-74
2022/06/24 00:53:00;;;;;;;1999.90;999.90;;;21.20;99.90;;;;;;4973901;28;20503;-74
2022/06/24 00:55:28;;;;;;;1999.90;999.90;;;21.10;99.90;;;;;;4974760;28;20520;-74
2022/06/24 00:57:55;;;;;;;1999.90;999.90;;;21.10;99.90;;;;;;4974332;28;20423;-75
2022/06/24 01:00:30;;;;;;;1999.90;999.90;;;21.10;99.90;;;;;;4974698;28;20430;-74
2022/06/24 01:03:00;;;;;;;1999.90;999.90;;;21.00;99.90;;;;;;4974700;28;20472;-75
2022/06/24 01:05:26;;;;;;;1999.90;999.90;;;20.90;99.90;;;;;;4974678;28;20390;-75
2022/06/24 01:07:52;;;;;;;1999.90;999.90;;;20.90;99.90;;;;;;4974172;28;20453;-75
2022/06/24 01:10:17;;;;;;;1999.90;999.90;;;20.90;99.90;;;;;;4974542;28;20471;-74
2022/06/24 01:12:43;;;;;;;1999.90;999.90;;;20.90;99.90;;;;;;4974393;28;20298;-74
2022/06/24 01:15:09;;;;;;;1999.90;999.90;;;20.80;99.90;;;;;;4974416;28;20172;-75
2022/06/24 01:17:37;;;;;;;1999.90;999.90;;;20.80;99.90;;;;;;4974038;28;20171;-75
2022/06/24 01:20:09;;;;;;;1999.90;999.90;;;20.80;99.90;;;;;;4974285;28;20931;-75
2022/06/24 01:22:35;;;;;;;1999.90;999.90;;;20.90;99.90;;;;;;4974309;28;20411;-74
2022/06/24 01:25:01;;;;;;;1999.90;999.90;;;20.80;99.90;;;;;;4974211;28;20461;-74
2022/06/24 01:27:27;;;;;;;1999.90;999.90;;;20.70;99.90;;;;;;4973865;28;20585;-74
2022/06/24 01:29:53;;;;;;;1999.90;999.90;;;20.60;99.90;;;;;;4974226;28;20390;-74
2022/06/24 01:32:19;;;;;;;1999.90;999.90;;;20.60;99.90;;;;;;4974006;28;20201;-74
2022/06/24 01:34:45;;;;;;;1999.90;999.90;;;20.60;99.90;;;;;;4974032;28;20195;-74
2022/06/24 01:37:11;;;;;;;1999.90;999.90;;;20.50;99.90;;;;;;4973718;28;20413;-72
2022/06/24 01:39:37;;;;;;;1999.90;999.90;;;20.50;99.90;;;;;;4973922;28;20182;-73
2022/06/24 01:42:03;;;;;;;1999.90;999.90;;;20.40;99.90;;;;;;4973933;28;20451;-73
2022/06/24 01:44:28;;;;;;;1999.90;999.90;;;20.40;99.90;;;;;;4973833;28;20178;-73
2022/06/24 01:46:54;;;;;;;1999.90;999.90;;;20.20;99.90;;;;;;4973556;28;20417;-73
2022/06/24 01:49:20;;;;;;;1999.90;999.90;;;20.30;99.90;;;;;;4973701;28;20194;-73
2022/06/24 01:51:48;;;;;;;1999.90;999.90;;;20.20;99.90;;;;;;4973605;28;20349;-73
2022/06/24 01:54:15;;;;;;;1999.90;999.90;;;20.10;99.90;;;;;;4973867;28;20497;-73
2022/06/24 01:56:41;;;;;;;1999.90;999.90;;;20.10;99.90;;;;;;4973437;28;20758;-74
2022/06/24 01:59:06;;;;;;;1999.90;999.90;;;20.00;99.90;;;;;;4973487;28;20530;-73
2022/06/24 02:01:32;;;;;;;1999.90;999.90;;;20.00;99.90;;;;;;4973635;28;20176;-73
2022/06/24 02:03:58;;;;;;;1999.90;999.90;;;20.10;99.90;;;;;;4973329;28;20183;-73
2022/06/24 02:06:24;;;;;;;1999.90;999.90;;;20.00;99.90;;;;;;4973215;28;20649;-73
2022/06/24 02:08:49;;;;;;;1999.90;999.90;;;20.10;99.90;;;;;;4973398;28;20494;-74
2022/06/24 02:14:03;;;;;;;1999.90;999.90;;;20.00;99.90;;;;;;4973745;28;20251;-74
2022/06/24 02:16:29;;;;;;;1999.90;999.90;;;20.10;99.90;;;;;;4973118;28;20383;-74
2022/06/24 02:18:56;;;;;;;1999.90;999.90;;;20.10;99.90;;;;;;4973282;28;20406;-74
2022/06/24 02:21:22;;;;;;;1999.90;999.90;;;20.10;99.90;;;;;;4973385;28;20803;-74
2022/06/24 02:23:48;;;;;;;1999.90;999.90;;;20.10;99.90;;;;;;4973467;28;20464;-74
2022/06/24 02:26:14;;;;;;;1999.90;999.90;;;20.10;99.90;;;;;;4973015;28;20388;-74
2022/06/24 02:28:40;;;;;;;1999.90;999.90;;;20.10;99.90;;;;;;4973178;28;20520;-73
2022/06/24 02:31:06;;;;;;;1999.90;999.90;;;20.10;99.90;;;;;;4973147;28;20202;-74
2022/06/24 02:33:32;;;;;;;1999.90;999.90;;;20.00;99.90;;;;;;4973957;28;20223;-73
2022/06/24 02:35:58;;;;;;;1999.90;999.90;;;19.90;99.90;;;;;;4974109;28;20904;-73
2022/06/24 02:38:24;;;;;;;1999.90;999.90;;;19.90;99.90;;;;;;4973691;28;20511;-73
2022/06/24 02:40:50;;;;;;;1999.90;999.90;;;19.80;99.90;;;;;;4973738;28;20984;-73
2022/06/24 02:43:22;;;;;;;1999.90;999.90;;;19.80;99.90;;;;;;4973213;28;20489;-74
2022/06/24 02:45:49;;;;;;;1999.90;999.90;;;19.70;99.90;;;;;;4973001;28;20174;-72
2022/06/24 02:48:16;;;;;;;1999.90;999.90;;;19.70;99.90;;;;;;4972873;28;20853;-73
2022/06/24 02:50:46;;;;;;;1999.90;999.90;;;19.70;99.90;;;;;;4973137;28;20389;-74
2022/06/24 02:53:12;;;;;;;1999.90;999.90;;;19.60;99.90;;;;;;4974552;28;20911;-73
2022/06/24 02:55:39;;;;;;;1999.90;999.90;;;19.60;99.90;;;;;;4974311;28;20399;-73
2022/06/24 02:58:05;;;;;;;1999.90;999.90;;;19.50;99.90;;;;;;4973679;28;20412;-73
2022/06/24 03:00:31;;;;;;;1999.90;999.90;;;19.50;99.90;;;;;;4974313;28;20405;-73
2022/06/24 03:02:57;;;;;;;1999.90;999.90;;;19.40;99.90;;;;;;4974285;28;20413;-73
2022/06/24 03:05:23;;;;;;;1999.90;999.90;;;19.40;99.90;;;;;;4974276;28;20422;-73
2022/06/24 03:07:49;;;;;;;1999.90;999.90;;;19.40;99.90;;;;;;4975190;28;20720;-73
2022/06/24 03:10:15;;;;;;;1999.90;999.90;;;19.40;99.90;;;;;;4974006;28;20455;-73
2022/06/24 03:12:41;;;;;;;1999.90;999.90;;;19.40;99.90;;;;;;4973768;28;20467;-73
2022/06/24 03:15:08;;;;;;;1999.90;999.90;;;19.50;99.90;;;;;;4974044;28;20404;-73
2022/06/24 03:17:34;;;;;;;1999.90;999.90;;;19.40;99.90;;;;;;4975980;28;20404;-73
2022/06/24 03:19:59;;;;;;;1999.90;999.90;;;19.40;99.90;;;;;;4977658;28;20978;-73
2022/06/24 03:22:25;;;;;;;1999.90;999.90;;;19.40;99.90;;;;;;4977165;28;20405;-73
2022/06/24 03:24:51;;;;;;;1999.90;999.90;;;19.50;99.90;;;;;;4977210;28;20198;-74
2022/06/24 03:27:17;;;;;;;1999.90;999.90;;;19.50;99.90;;;;;;4976487;28;20681;-74
2022/06/24 03:29:42;;;;;;;1999.90;999.90;;;19.50;99.90;;;;;;4976518;28;20543;-73
2022/06/24 03:32:08;;;;;;;1999.90;999.90;;;19.50;99.90;;;;;;4976870;28;20318;-73
2022/06/24 03:34:34;;;;;;;1999.90;999.90;;;19.60;99.90;;;;;;4976659;28;20279;-73
2022/06/24 03:37:00;;;;;;;1999.90;999.90;;;19.60;99.90;;;;;;4976222;28;20169;-73
2022/06/24 03:39:26;;;;;;;1999.90;999.90;;;19.60;99.90;;;;;;4976514;28;20183;-74
2022/06/24 03:41:51;;;;;;;1999.90;999.90;;;19.70;99.90;;;;;;4976520;28;21066;-74
2022/06/24 03:44:17;;;;;;;1999.90;999.90;;;19.70;99.90;;;;;;4976337;28;20178;-74
2022/06/24 03:46:42;;;;;;;1999.90;999.90;;;19.70;99.90;;;;;;4976366;28;20538;-74
2022/06/24 03:49:08;;;;;;;1999.90;999.90;;;19.80;99.90;;;;;;4976815;28;20191;-74
2022/06/24 03:51:35;;;;;;;1999.90;999.90;;;19.90;99.90;;;;;;4976712;28;20888;-74
2022/06/24 03:54:00;;;;;;;1999.90;999.90;;;20.00;99.90;;;;;;4977135;28;20202;-74
2022/06/24 03:56:26;;;;;;;1999.90;999.90;;;20.00;99.90;;;;;;4976680;28;20407;-74
2022/06/24 03:58:51;;;;;;;1999.90;999.90;;;20.00;99.90;;;;;;4977198;28;20285;-74
2022/06/24 04:01:17;;;;;;;1999.90;999.90;;;20.00;99.90;;;;;;4977577;28;20252;-74
2022/06/24 04:03:43;;;;;;;1999.90;999.90;;;20.00;99.90;;;;;;4977939;28;20198;-74
2022/06/24 04:06:08;;;;;;;1999.90;999.90;;;20.00;99.90;;;;;;4977462;28;20183;-74
2022/06/24 04:08:34;;;;;;;1999.90;999.90;;;20.00;99.90;;;;;;4977536;28;20190;-74
2022/06/24 04:11:11;;;;;;;1999.90;999.90;;;20.00;99.90;;;;;;4976730;28;20176;-74
2022/06/24 04:13:37;;;;;;;1999.90;999.90;;;20.00;99.90;;;;;;4976508;28;20181;-74
2022/06/24 04:16:02;;;;;;;1999.90;999.90;;;20.00;99.90;;;;;;4976387;28;20900;-74
2022/06/24 04:18:28;;;;;;;1999.90;999.90;;;20.10;99.90;;;;;;4976519;28;20241;-74
2022/06/24 04:20:54;;;;;;;1999.90;999.90;;;20.20;99.90;;;;;;4976066;28;20186;-74
2022/06/24 04:23:19;;;;;;;1999.90;999.90;;;20.20;99.90;;;;;;4976638;28;20226;-74
2022/06/24 04:25:48;;;;;;;1999.90;999.90;;;20.20;99.90;;;;;;4976106;28;20170;-74
2022/06/24 04:28:14;;;;;;;1999.90;999.90;;;20.20;99.90;;;;;;4975773;28;20190;-74
2022/06/24 04:30:40;;;;;;;1999.90;999.90;;;20.20;99.90;;;;;;4975889;28;20402;-74
2022/06/24 04:33:05;;;;;;;1999.90;999.90;;;20.20;99.90;;;;;;4975884;28;20795;-74
2022/06/24 04:35:31;;;;;;;1999.90;999.90;;;20.20;99.90;;;;;;4976696;28;20406;-74
2022/06/24 04:37:57;;;;;;;1999.90;999.90;;;20.30;99.90;;;;;;4975575;28;20187;-74
2022/06/24 04:40:23;;;;;;;1999.90;999.90;;;20.30;99.90;;;;;;4975916;28;20659;-74
2022/06/24 04:42:48;;;;;;;1999.90;999.90;;;20.20;99.90;;;;;;4975785;28;20382;-74
2022/06/24 04:45:15;;;;;;;1999.90;999.90;;;20.20;99.90;;;;;;4975657;28;20464;-74
2022/06/24 04:47:40;;;;;;;1999.90;999.90;;;20.30;99.90;;;;;;4975467;28;20179;-74
2022/06/24 04:50:07;;;;;;;1999.90;999.90;;;20.20;99.90;;;;;;4975317;28;20740;-74
2022/06/24 04:52:34;;;;;;;1999.90;999.90;;;20.20;99.90;;;;;;4975174;28;20202;-74
2022/06/24 04:55:00;;;;;;;1999.90;999.90;;;20.20;99.90;;;;;;4975135;28;20978;-74
2022/06/24 04:57:26;;;;;;;1999.90;999.90;;;20.20;99.90;;;;;;4974928;28;20395;-74
2022/06/24 04:59:51;;;;;;;1999.90;999.90;;;20.20;99.90;;;;;;4989934;23;20521;-68
2022/06/24 05:02:17;;;;;;;1999.90;999.90;;;20.20;99.90;;;;;;4974727;28;20178;-68
2022/06/24 05:04:43;;;;;;;1999.90;999.90;;;20.30;99.90;;;;;;4974717;28;20654;-68
2022/06/24 05:07:09;;;;;;;1999.90;999.90;;;20.30;99.90;;;;;;4974341;28;20178;-68
2022/06/24 05:09:35;;;;;;;1999.90;999.90;;;20.30;99.90;;;;;;4989323;28;20926;-68
2022/06/24 05:12:01;;;;;;;1999.90;999.90;;;20.30;99.90;;;;;;4974482;28;20288;-68
2022/06/24 05:14:31;;;;;;;1999.90;999.90;;;20.30;99.90;;;;;;4974462;28;20177;-68
2022/06/24 05:16:57;;;;;;;1999.90;999.90;;;20.30;99.90;;;;;;4974199;28;20432;-68
2022/06/24 05:19:23;;;;;;;1999.90;999.90;;;20.40;99.90;;;;;;4974282;28;20413;-68
2022/06/24 05:21:49;;;;;;;1999.90;999.90;;;20.50;99.90;;;;;;4974359;28;20406;-68
2022/06/24 05:24:15;;;;;;;1999.90;999.90;;;20.50;99.90;;;;;;4974264;28;20203;-68
2022/06/24 05:26:41;;;;;;;1999.90;999.90;;;20.60;99.90;;;;;;4973936;28;20494;-68
2022/06/24 05:29:07;;;;;;;1999.90;999.90;;;20.60;99.90;;;;;;4974086;28;20315;-68
2022/06/24 05:31:33;;;;;;;1999.90;999.90;;;20.60;99.90;;;;;;4974157;28;20424;-68
2022/06/24 05:33:59;;;;;;;1999.90;999.90;;;20.60;99.90;;;;;;4974103;28;20384;-69
2022/06/24 05:36:24;;;;;;;1999.90;999.90;;;20.70;99.90;;;;;;4973782;28;20160;-68
2022/06/24 05:38:50;;;;;;;1999.90;999.90;;;20.70;99.90;;;;;;4973664;28;20599;-68
2022/06/24 05:41:16;;;;;;;1999.90;999.90;;;20.80;99.90;;;;;;4973754;28;20204;-68
2022/06/24 05:43:44;;;;;;;1999.90;999.90;;;20.80;99.90;;;;;;4973971;28;20905;-68
2022/06/24 05:46:09;;;;;;;1999.90;999.90;;;20.90;99.90;;;;;;4973665;28;20393;-68
2022/06/24 05:48:35;;;;;;;1999.90;999.90;;;20.90;99.90;;;;;;4973776;28;20485;-68
2022/06/24 05:51:12;;;;;;;1999.90;999.90;;;21.00;99.90;;;;;;4973738;28;20247;-68
2022/06/24 05:56:23;;;;;;;1999.90;999.90;;;21.10;99.90;;;;;;4973482;28;20406;-68
2022/06/24 05:58:50;;;;;;;1999.90;999.90;;;21.20;99.90;;;;;;4973511;28;20452;-68
2022/06/24 06:01:16;;;;;;;1999.90;999.90;;;21.20;99.90;;;;;;4972343;28;20418;-68
2022/06/24 06:03:42;;;;;;;1999.90;999.90;;;21.20;99.90;;;;;;4973626;28;20411;-68
2022/06/24 06:06:08;;;;;;;1999.90;999.90;;;21.10;99.90;;;;;;4973321;28;20408;-68
2022/06/24 06:08:35;;;;;;;1999.90;999.90;;;21.10;99.90;;;;;;4973399;28;20410;-68
2022/06/24 06:11:01;;;;;;;1999.90;999.90;;;21.10;99.90;;;;;;4973354;28;20412;-68
2022/06/24 06:13:26;;;;;;;1999.90;999.90;;;21.00;99.90;;;;;;4973488;28;20373;-68
2022/06/24 06:15:52;;;;;;;1999.90;999.90;;;21.00;99.90;;;;;;4973387;28;20587;-68
2022/06/24 06:18:18;;;;;;;1999.90;999.90;;;20.80;99.90;;;;;;4973094;28;20219;-68
2022/06/24 06:20:43;;;;;;;1999.90;999.90;;;20.70;99.90;;;;;;4973394;28;20172;-68
2022/06/24 06:23:09;;;;;;;1999.90;999.90;;;20.60;99.90;;;;;;4973386;28;20641;-68
2022/06/24 06:25:35;;;;;;;1999.90;999.90;;;20.30;99.90;;;;;;4974299;28;20175;-69
2022/06/24 06:28:01;;;;;;;1999.90;999.90;;;20.00;99.90;;;;;;4975352;28;20175;-67
2022/06/24 06:30:29;;;;;;;1999.90;999.90;;;19.70;99.90;;;;;;4973777;28;20251;-68
2022/06/24 06:32:55;;;;;;;1999.90;999.90;;;19.50;99.90;;;;;;4973738;28;20574;-67
2022/06/24 06:35:20;;;;;;;1999.90;999.90;;;19.40;99.90;;;;;;4974134;28;20429;-67
2022/06/24 06:37:46;;;;;;;1999.90;999.90;;;19.30;99.90;;;;;;4966207;28;20206;-69
2022/06/24 06:40:11;;;;;;;1999.90;999.90;;;19.20;99.90;;;;;;4957362;29;20170;-69
2022/06/24 06:42:37;;;;;;;1999.90;999.90;;;19.00;99.90;;;;;;4954818;29;20182;-68
2022/06/24 06:45:04;;;;;;;1999.90;999.90;;;18.90;99.90;;;;;;4953858;29;20180;-67
2022/06/24 06:47:29;;;;;;;1999.90;999.90;;;18.80;99.90;;;;;;4953479;29;20166;-67
2022/06/24 06:49:55;;;;;;;1999.90;999.90;;;18.70;99.90;;;;;;4953725;29;20500;-68
2022/06/24 06:52:21;;;;;;;1999.90;999.90;;;18.60;99.90;;;;;;4957534;28;20255;-68
2022/06/24 06:54:46;;;;;;;1999.90;999.90;;;18.50;99.90;;;;;;4957742;29;20163;-68
2022/06/24 06:57:12;;;;;;;1999.90;999.90;;;18.40;99.90;;;;;;4957386;29;20260;-68
2022/06/24 06:59:38;;;;;;;1999.90;999.90;;;18.50;99.90;;;;;;4957510;29;20559;-68
2022/06/24 07:02:04;;;;;;;1999.90;999.90;;;18.40;99.90;;;;;;4957563;29;20175;-68
2022/06/24 07:04:29;;;;;;;1999.90;999.90;;;18.40;99.90;;;;;;4957517;29;20416;-69
2022/06/24 07:06:55;;;;;;;1999.90;999.90;;;18.30;99.90;;;;;;4956044;29;20554;-68
2022/06/24 07:09:20;;;;;;;1999.90;999.90;;;18.30;99.90;;;;;;4957314;29;20653;-69
2022/06/24 07:11:46;;;;;;;1999.90;999.90;;;18.40;99.90;;;;;;4957341;29;20190;-69
2022/06/24 07:14:12;;;;;;;1999.90;999.90;;;18.40;99.90;;;;;;4957279;29;20592;-69
2022/06/24 07:16:37;;;;;;;1999.90;999.90;;;18.40;99.90;;;;;;4956406;29;20246;-69
2022/06/24 07:19:03;;;;;;;1999.90;999.90;;;18.50;99.90;;;;;;4957181;29;20188;-69
2022/06/24 07:21:29;;;;;;;1999.90;999.90;;;18.50;99.90;;;;;;4957073;29;20435;-69
2022/06/24 07:23:54;;;;;;;1999.90;999.90;;;18.40;99.90;;;;;;4957111;29;20180;-69
2022/06/24 07:26:20;;;;;;;1999.90;999.90;;;18.50;99.90;;;;;;4956961;29;20180;-69
2022/06/24 07:28:45;;;;;;;1999.90;999.90;;;18.50;99.90;;;;;;4957047;29;20569;-69
2022/06/24 07:31:16;;;;;;;1999.90;999.90;;;18.60;99.90;;;;;;4956915;29;20171;-69
2022/06/24 07:33:41;;;;;;;1999.90;999.90;;;18.60;99.90;;;;;;4957036;29;20188;-69
2022/06/24 07:36:07;;;;;;;1999.90;999.90;;;18.70;99.90;;;;;;4956680;29;20635;-69
2022/06/24 07:38:33;;;;;;;1999.90;999.90;;;18.60;99.90;;;;;;4956831;29;20185;-69
2022/06/24 07:40:58;;;;;;;1999.90;999.90;;;18.60;99.90;;;;;;4956981;29;20171;-69
2022/06/24 07:43:24;;;;;;;1999.90;999.90;;;18.60;99.90;;;;;;4956800;29;20644;-69
2022/06/24 07:45:51;;;;;;;1999.90;999.90;;;18.60;99.90;;;;;;4956625;29;20258;-69
2022/06/24 07:48:17;;;;;;;1999.90;999.90;;;18.60;99.90;;;;;;4956429;29;20193;-69
2022/06/24 07:50:43;;;;;;;1999.90;999.90;;;18.70;99.90;;;;;;4956740;29;20497;-68
2022/06/24 07:53:09;;;;;;;1999.90;999.90;;;18.70;99.90;;;;;;4956526;29;20246;-68
2022/06/24 07:58:19;;;;;;;1999.90;999.90;;;18.80;99.90;;;;;;4956390;29;20491;-69
2022/06/24 08:00:44;;;;;;;1999.90;999.90;;;18.90;99.90;;;;;;4956547;29;20399;-69
2022/06/24 08:03:10;;;;;;;1999.90;999.90;;;18.90;99.90;;;;;;4955852;28;20439;-69
2022/06/24 08:05:36;;;;;;;1999.90;999.90;;;19.00;99.90;;;;;;4956448;29;20276;-68
2022/06/24 08:08:01;;;;;;;1999.90;999.90;;;19.20;99.90;;;;;;4956107;29;20177;-68
2022/06/24 08:10:28;;;;;;;1999.90;999.90;;;19.30;99.90;;;;;;4956343;29;20175;-69
2022/06/24 08:12:54;;;;;;;1999.90;999.90;;;19.40;99.90;;;;;;4956155;29;20289;-69
2022/06/24 08:15:19;;;;;;;1999.90;999.90;;;19.50;99.90;;;;;;4956295;29;20571;-69
2022/06/24 08:17:45;;;;;;;1999.90;999.90;;;19.50;99.90;;;;;;4955989;29;20654;-68
2022/06/24 08:20:11;;;;;;;1999.90;999.90;;;19.60;99.90;;;;;;4956107;29;20191;-69
2022/06/24 08:22:36;;;;;;;1999.90;999.90;;;19.70;99.90;;;;;;4956050;29;20173;-68
2022/06/24 08:25:02;;;;;;;1999.90;999.90;;;19.80;99.90;;;;;;4956132;29;20598;-68
2022/06/24 08:27:28;;;;;;;1999.90;999.90;;;19.90;99.90;;;;;;4955681;29;20167;-68
2022/06/24 08:29:54;;;;;;;1999.90;999.90;;;20.00;99.90;;;;;;4955883;29;20522;-68
2022/06/24 08:32:19;;;;;;;1999.90;999.90;;;20.10;99.90;;;;;;4955866;29;20204;-68
2022/06/24 08:34:45;;;;;;;1999.90;999.90;;;20.20;99.90;;;;;;4955902;29;20222;-68
2022/06/24 08:37:11;;;;;;;1999.90;999.90;;;20.30;99.90;;;;;;4955566;29;20177;-68
2022/06/24 08:39:36;;;;;;;1999.90;999.90;;;20.50;99.90;;;;;;4955664;29;20700;-69
2022/06/24 08:42:04;;;;;;;1999.90;999.90;;;20.60;99.90;;;;;;4955717;29;20171;-68
2022/06/24 08:44:30;;;;;;;1999.90;999.90;;;20.70;99.90;;;;;;4955742;28;20617;-68
2022/06/24 08:46:55;;;;;;;1999.90;999.90;;;20.80;99.90;;;;;;4955434;29;20387;-68
2022/06/24 08:49:21;;;;;;;1999.90;999.90;;;21.00;99.90;;;;;;4955586;29;20224;-69
2022/06/24 08:51:49;;;;;;;1999.90;999.90;;;21.10;99.90;;;;;;4955554;29;20279;-70
2022/06/24 08:54:20;;;;;;;1999.90;999.90;;;21.20;99.90;;;;;;4955972;29;20815;-69
2022/06/24 08:56:45;;;;;;;1999.90;999.90;;;21.30;99.90;;;;;;4955474;29;20397;-69
2022/06/24 08:59:11;;;;;;;1999.90;999.90;;;21.20;99.90;;;;;;4955903;29;20480;-69
2022/06/24 09:01:41;;;;;;;1999.90;999.90;;;21.20;99.90;;;;;;4955651;29;20403;-69
2022/06/24 09:04:08;;;;;;;1999.90;999.90;;;21.10;99.90;;;;;;4955796;29;20182;-69
2022/06/24 09:06:38;;;;;;;1999.90;999.90;;;21.10;99.90;;;;;;4955205;29;20394;-69
2022/06/24 09:09:04;;;;;;;1999.90;999.90;;;21.10;99.90;;;;;;4955537;29;20440;-68
2022/06/24 09:11:40;;;;;;;1999.90;999.90;;;21.30;99.90;;;;;;4955573;29;20434;-70
2022/06/24 09:14:07;;;;;;;1999.90;999.90;;;21.50;99.90;;;;;;4954518;28;20384;-69
2022/06/24 09:16:37;;;;;;;1999.90;999.90;;;21.70;99.90;;;;;;4955025;29;21030;-68
2022/06/24 09:19:05;;;;;;;1999.90;999.90;;;22.00;99.90;;;;;;4955026;29;20402;-69
2022/06/24 09:21:39;;;;;;;1999.90;999.90;;;22.10;99.90;;;;;;4955068;29;20479;-68
2022/06/24 09:24:06;;;;;;;1999.90;999.90;;;22.40;99.90;;;;;;4970128;28;21002;-68
2022/06/24 09:26:39;;;;;;;1999.90;999.90;;;22.50;99.90;;;;;;4954920;29;20417;-68
2022/06/24 09:29:15;;;;;;;1999.90;999.90;;;22.70;99.90;;;;;;4954910;29;20434;-68
2022/06/24 09:31:41;;;;;;;1999.90;999.90;;;22.80;99.90;;;;;;4953610;29;20512;-68
2022/06/24 09:34:12;;;;;;;1999.90;999.90;;;22.90;99.90;;;;;;4954734;29;20840;-69
2022/06/24 09:36:40;;;;;;;1999.90;999.90;;;23.00;99.90;;;;;;4954500;29;20642;-68
2022/06/24 09:39:08;;;;;;;1999.90;999.90;;;23.10;99.90;;;;;;4954673;29;20898;-68
2022/06/24 09:41:47;;;;;;;1999.90;999.90;;;23.10;99.90;;;;;;4954666;29;20389;-68
2022/06/24 09:44:13;;;;;;;1999.90;999.90;;;23.40;99.90;;;;;;4954626;29;20476;-68
2022/06/24 09:46:39;;;;;;;1999.90;999.90;;;23.50;99.90;;;;;;4954247;29;20753;-69
2022/06/24 09:49:07;;;;;;;1999.90;999.90;;;23.70;99.90;;;;;;4954424;29;20407;-69
2022/06/24 09:51:33;;;;;;;1999.90;999.90;;;23.90;99.90;;;;;;4954338;29;20246;-68
2022/06/24 09:54:00;;;;;;;1999.90;999.90;;;23.90;99.90;;;;;;4954374;29;20893;-69
2022/06/24 09:56:28;;;;;;;1999.90;999.90;;;24.00;99.90;;;;;;4954150;29;20194;-69
2022/06/24 10:01:41;;;;;;;1999.90;999.90;;;24.30;99.90;;;;;;4954364;29;20409;-69
2022/06/24 10:04:12;;;;;;;1999.90;999.90;;;24.40;99.90;;;;;;4954379;29;20411;-68
2022/06/24 10:06:41;;;;;;;1999.90;999.90;;;24.50;99.90;;;;;;4954069;29;20442;-68
2022/06/24 10:09:07;;;;;;;1999.90;999.90;;;24.60;99.90;;;;;;4954190;29;20478;-68
2022/06/24 10:11:34;;;;;;;1999.90;999.90;;;24.80;99.90;;;;;;4954122;29;20525;-69
2022/06/24 10:14:01;;;;;;;1999.90;999.90;;;25.10;99.90;;;;;;4954263;29;20409;-68
2022/06/24 10:16:27;;;;;;;1999.90;999.90;;;25.30;99.90;;;;;;4953870;29;20461;-68
2022/06/24 10:18:53;;;;;;;1999.90;999.90;;;25.20;99.90;;;;;;4953963;29;20396;-68
2022/06/24 10:21:20;;;;;;;1999.90;999.90;;;25.20;99.90;;;;;;4954079;29;20704;-68
2022/06/24 10:23:48;;;;;;;1999.90;999.90;;;25.30;99.90;;;;;;4954016;29;20415;-69
2022/06/24 10:26:22;;;;;;;1999.90;999.90;;;25.40;99.90;;;;;;4953428;28;20461;-68
2022/06/24 10:29:08;;;;;;;1999.90;999.90;;;25.60;99.90;;;;;;4953925;29;20564;-70
2022/06/24 10:34:25;;;;;;;1999.90;999.90;;;26.20;99.90;;;;;;4953915;29;20402;-68
2022/06/24 10:36:59;;;;;;;1999.90;999.90;;;26.30;99.90;;;;;;4954656;29;20502;-69
2022/06/24 10:39:27;;;;;;;1999.90;999.90;;;26.20;99.90;;;;;;4954616;29;20513;-69
2022/06/24 10:42:04;;;;;;;1999.90;999.90;;;25.90;99.90;;;;;;4954906;29;20489;-70
2022/06/24 10:44:31;;;;;;;1999.90;999.90;;;25.60;99.90;;;;;;4954835;29;20418;-70
2022/06/24 10:47:12;;;;;;;1999.90;999.90;;;25.20;99.90;;;;;;4954394;29;20410;-69
2022/06/24 10:49:52;;;;;;;1999.90;999.90;;;24.90;99.90;;;;;;4954717;29;20461;-70
2022/06/24 10:52:48;;;;;;;1999.90;999.90;;;24.60;99.90;;;;;;4954759;29;20458;-69
2022/06/24 10:55:21;;;;;;;1999.90;999.90;;;24.50;99.90;;;;;;4955393;29;20407;-69
2022/06/24 10:57:51;;;;;;;1999.90;999.90;;;24.40;99.90;;;;;;4954689;29;20418;-69
2022/06/24 11:00:18;;;;;;;1999.90;999.90;;;24.30;99.90;;;;;;4955153;29;20454;-69
2022/06/24 11:02:46;;;;;;;1999.90;999.90;;;24.40;99.90;;;;;;4954926;29;20407;-69
2022/06/24 11:05:34;;;;;;;1999.90;999.90;;;24.40;99.90;;;;;;4955366;29;20406;-70
2022/06/24 11:08:00;;;;;;;1999.90;999.90;;;24.60;99.90;;;;;;4956248;29;20403;-70
2022/06/24 11:10:31;;;;;;;1999.90;999.90;;;24.80;99.90;;;;;;4955820;29;20413;-70
2022/06/24 11:13:01;;;;;;;1999.90;999.90;;;25.20;99.90;;;;;;4955846;29;20465;-69
2022/06/24 11:15:43;;;;;;;1999.90;999.90;;;25.70;99.90;;;;;;4956251;29;20407;-68
2022/06/24 11:18:11;;;;;;;1999.90;999.90;;;26.10;99.90;;;;;;4956616;29;20414;-70
2022/06/24 11:20:42;;;;;;;1999.90;999.90;;;26.40;99.90;;;;;;4957024;29;20410;-70
2022/06/24 11:23:12;;;;;;;1999.90;999.90;;;26.40;99.90;;;;;;4958190;29;20802;-70
2022/06/24 11:25:40;;;;;;;1999.90;999.90;;;26.30;99.90;;;;;;4959625;29;20792;-70
2022/06/24 11:28:23;;;;;;;1999.90;999.90;;;26.10;99.90;;;;;;4961338;29;20407;-70
2022/06/24 11:30:52;;;;;;;1999.90;999.90;;;25.90;99.90;;;;;;4961970;29;20409;-70
2022/06/24 11:33:19;;;;;;;1999.90;999.90;;;25.50;99.90;;;;;;4960158;29;20454;-70
2022/06/24 11:35:47;;;;;;;1999.90;999.90;;;25.60;99.90;;;;;;4974342;28;20810;-69
2022/06/24 11:38:13;;;;;;;1999.90;999.90;;;25.70;99.90;;;;;;4959765;28;20802;-70
2022/06/24 11:40:40;;;;;;;1999.90;999.90;;;25.90;99.90;;;;;;4962744;29;20854;-70
2022/06/24 11:43:09;;;;;;;1999.90;999.90;;;26.10;99.90;;;;;;4961298;28;20426;-70
2022/06/24 11:45:37;;;;;;;1999.90;999.90;;;26.40;99.90;;;;;;4976482;28;20422;-70
2022/06/24 11:48:08;;;;;;;1999.90;999.90;;;26.50;99.90;;;;;;4963022;29;20421;-70
2022/06/24 11:50:35;;;;;;;1999.90;999.90;;;26.40;99.90;;;;;;4963631;29;20420;-70
2022/06/24 11:53:02;;;;;;;1999.90;999.90;;;26.20;99.90;;;;;;4960507;29;20548;-68
2022/06/24 11:55:39;;;;;;;1999.90;999.90;;;26.10;99.90;;;;;;4957049;29;20415;-67
2022/06/24 11:58:06;;;;;;;1999.90;999.90;;;26.10;99.90;;;;;;4956056;29;20411;-68
2022/06/24 12:00:39;;;;;;;1999.90;999.90;;;25.90;99.90;;;;;;4956534;29;20387;-70
2022/06/24 12:03:07;;;;;;;1999.90;999.90;;;26.10;99.90;;;;;;4956578;29;20773;-68
2022/06/24 12:05:36;;;;;;;1999.90;999.90;;;26.30;99.90;;;;;;4956467;29;20411;-68
2022/06/24 12:08:03;;;;;;;1999.90;999.90;;;26.50;99.90;;;;;;4956118;29;20932;-68
2022/06/24 12:10:28;;;;;;;1999.90;999.90;;;26.90;99.90;;;;;;4956281;29;20415;-68
2022/06/24 12:12:57;;;;;;;1999.90;999.90;;;27.70;99.90;;;;;;4956414;29;20561;-67